Historyczne dane pomiarowe

Dodano dane terminowe – wersja testowa.

Dane z okresu 1951-2019

Wersja bazy: 1.34 [2019-03-16, lista zmian], aktualizacja planowana na 2019-04-15

Dane meteo z obszaru Polski uzyskane na podstawie danych udostępnionych przez Instytut Meteorologii i Gospodarki Wodnej – Państwowy Instytut Badawczy.

 

Wybierz Datę:    

       

TemperaturaWilgotnośćWiatrCiśnienieOpadyŚniegCzas trwania zjawisk
 Stacja t tx tn tng RH VA  wxwx mslp ppp RRR   cm mm wxwxwxwxwxwxwx
1999-08-14 16.4 23.5 10.8 7.5 63.5- 3.0 0.7---- 0.0------------
1999-08-13 15.8 19.8 13.1 9.0 71.5- 6.7 1.3---- 0.0------------
1999-08-12 17.0 21.0 14.6 13.9 66.5- 6.7 2.0---- 0.0------------
1999-08-11 19.5 25.0 15.9 12.4 66.5- 6.7 2.7---- 0.0------------
1999-08-10 19.5 23.5 14.9 12.0 80.3- 7.3 3.0---- 0.9------------
1999-08-09 21.7 28.7 16.9 13.4 73.0- 4.0 0.0---- 2.4------------
1999-08-08 23.4 30.5 17.1 14.9 69.5- 4.3 0.3---- 0.0------------
1999-08-07 20.2 31.6 14.4 11.0 83.3- 4.3 0.0---- 4.4------------
1999-08-06 21.6 27.2 15.9 12.3 69.3- 4.7 1.3---- 0.0------------
1999-08-05 19.1 28.5 10.2 6.5 64.0- 4.3 0.7---- 1.3------------
1999-08-04 18.7 27.5 9.9 6.0 59.8- 3.3 0.3---- 0.0------------
1999-08-03 18.2 27.3 9.9 6.0 70.0- 4.7 0.3---- 0.0------------
1999-08-02 18.3 24.9 11.1 7.2 69.5- 5.3 0.0---- 0.0------------
1999-08-01 19.2 27.4 12.1 7.8 57.0- 5.0 0.7---- 0.0------------
1999-07-31 18.9 27.3 11.0 6.9 60.5- 4.0 0.3---- 0.0------------
1999-07-30 18.4 25.6 11.0 6.4 60.8- 2.7 0.3---- 0.0------------
1999-07-29 18.3 25.1 12.2 7.5 69.8- 2.7 0.0---- 0.0------------
1999-07-28 19.1 25.0 12.6 8.8 55.8- 3.3 2.0---- 0.0------------
1999-07-27 19.4 25.6 15.7 14.9 73.0- 5.0 1.0---- 0.0------------
1999-07-26 20.7 28.0 12.3 8.5 66.5- 2.3 0.3---- 0.0------------
1999-07-25 19.0 26.9 9.9 6.0 63.0- 0.7 0.0---- 0.0------------
1999-07-24 16.7 21.5 12.9 12.2 76.5- 4.7 0.0---- 0.0------------
1999-07-23 16.8 21.4 14.3 12.3 71.5- 6.7 1.7---- 1.6------------
1999-07-22 19.3 24.0 16.0 12.4 63.0- 5.3 2.7---- 0.0------------
1999-07-21 22.4 29.0 15.8 13.0 65.3- 4.7 1.7---- 4.7------------
1999-07-20 21.3 31.3 13.2 9.7 68.3- 2.3 1.7---- 0.3------------
1999-07-19 20.7 29.9 11.5 8.4 67.5- 3.7 0.0---- 0.0------------
1999-07-18 19.0 28.0 10.6 7.8 68.8- 2.3 0.3---- 0.0------------
1999-07-17 18.6 25.2 10.8 7.9 61.8- 1.3 0.0---- 0.0------------
1999-07-16 16.4 21.9 10.3 8.1 70.8- 3.3 0.3---- 0.1------------
1999-07-15 16.7 19.8 14.4 12.8 72.0- 5.0 1.3---- 1.0------------
1999-07-14 20.4 27.0 15.7 13.4 75.8- 6.0 2.0---- 4.2------------
1999-07-13 20.7 28.1 15.2 12.3 83.3- 5.7 1.7---- 3.5------------
1999-07-12 21.3 28.6 14.8 12.1 84.5- 7.3 0.3---- 0.0------------
1999-07-11 19.8 22.5 16.6 14.0 83.8- 7.0 0.7---- 15.0------------
1999-07-10 19.5 25.0 11.8 10.4 77.5- 6.7 1.7---- 0.0------------
1999-07-09 18.1 20.6 14.9 14.7 93.5- 7.7 1.0---- 0.0------------
1999-07-08 15.6 17.5 14.2 13.9 98.5- 8.0 1.3---- 7.7------------
1999-07-07 19.1 22.3 16.9 14.0 92.8- 5.3 1.0---- 21.0------------
1999-07-06 23.4 32.9 17.0 13.1 75.8- 4.3 2.0---- 0.0------------
1999-07-05 23.9 31.3 15.9 12.0 68.0- 1.0 3.0---- 0.0------------
1999-07-04 22.7 32.7 12.4 12.0 74.3- 1.7 0.0---- 0.0------------
1999-07-03 20.8 27.5 13.4 10.0 76.0- 1.3 0.7---- 0.0------------
1999-07-02 19.9 25.5 14.9 12.6 76.8- 4.7 1.3---- 0.4------------
1999-07-01 19.1 25.3 13.9 10.5 86.8- 5.0 0.3---- 6.8------------
1999-06-30 20.7 27.4 13.3 10.2 68.0- 4.0 0.0---- 0.0------------
1999-06-29 19.2 24.3 13.4 10.9 64.0- 3.7 0.7---- 0.0------------
1999-06-28 20.5 28.4 15.6 13.3 81.0- 4.3 1.0---- 3.7------------
1999-06-27 19.7 26.5 12.8 9.5 69.8- 6.7 2.3---- 4.6------------
1999-06-26 16.8 25.5 9.9 9.0 81.8- 4.7 1.3---- 0.0------------
1999-06-25 13.4 19.8 6.5 3.0 69.8- 6.3 0.3---- 16.9------------
1999-06-24 12.4 18.0 6.5 1.5 69.8- 4.7 0.7---- 0.0------------
1999-06-23 12.6 16.6 8.9 8.0 71.3- 7.0 2.3---- 0.0------------
1999-06-22 9.9 13.0 8.4 7.4 93.3- 8.0 5.0---- 29.5------------
1999-06-21 16.5 22.2 12.3 11.5 75.5- 7.3 1.7---- 16.6------------
1999-06-20 17.8 23.6 10.6 8.1 78.3- 7.3 0.0---- 0.1------------
1999-06-19 15.6 19.5 12.4 12.0 94.0- 8.0 0.3---- 0.1------------
1999-06-18 15.8 20.0 13.1 12.6 94.5- 8.0 1.0---- 33.6------------
1999-06-17 18.4 23.0 14.7 12.7 83.8- 6.0 0.3---- 2.0------------
1999-06-16 17.6 21.5 14.7 14.3 84.0- 8.0 0.3---- 0.2------------
349.7 ms

 

Źródłem pochodzenia danych jest Instytut Meteorologii i Gospodarki Wodnej – Państwowy Instytut Badawczy. Dane Instytutu Meteorologii i Gospodarki Wodnej – Państwowego Instytutu Badawczego zostały przetworzone.

Dane źródłowe można odnaleźć na stronie https://dane.imgw.pl